Time;durP1;ratioP1;P1;durP2;ratioP2;P2;SDS_P1;SDS_P2;PMS_P1;PMS_P2;Temp;Humidity;BMP_temperature;BMP_pressure;BME280_temperature;BME280_humidity;BME280_pressure;Samples;Min_cycle;Max_cycle;Signal;HPM_P1;HPM_P2
2022/04/18 00:02:22;;;;;;;8.80;8.50;;;;;;;2.32;85.24;92397.78;4990868;28;20207;-78
2022/04/18 00:04:48;;;;;;;7.53;7.33;;;;;;;2.53;86.98;92386.75;4990218;28;20287;-76
2022/04/18 00:07:14;;;;;;;8.73;8.33;;;;;;;2.32;86.46;92385.66;4990683;28;20238;-78
2022/04/18 00:09:39;;;;;;;8.83;8.53;;;;;;;2.43;86.03;92382.22;4990364;28;20228;-78
2022/04/18 00:12:05;;;;;;;9.30;9.00;;;;;;;2.51;85.82;92386.97;4989985;28;20188;-78
2022/04/18 00:14:31;;;;;;;8.40;8.10;;;;;;;2.26;86.62;92345.38;4989586;28;20240;-79
2022/04/18 00:16:57;;;;;;;8.53;8.23;;;;;;;2.31;85.60;92367.84;4990647;28;20188;-78
2022/04/18 00:19:23;;;;;;;8.47;8.17;;;;;;;2.30;85.47;92384.34;4989758;28;20258;-78
2022/04/18 00:21:49;;;;;;;9.03;8.73;;;;;;;2.42;86.01;92382.44;4990108;28;20231;-79
2022/04/18 00:24:17;;;;;;;7.80;7.60;;;;;;;2.28;84.88;92378.63;4989634;28;20223;-77
2022/04/18 00:26:43;;;;;;;7.50;7.30;;;;;;;2.33;84.65;92382.09;4991891;28;20234;-78
2022/04/18 00:29:09;;;;;;;8.10;7.80;;;;;;;2.31;84.18;92373.00;4991184;28;20243;-78
2022/04/18 00:31:35;;;;;;;8.50;8.30;;;;;;;2.54;84.84;92372.84;4990640;28;20188;-79
2022/04/18 00:34:00;;;;;;;8.37;8.10;;;;;;;2.36;86.24;92365.38;4991130;28;20239;-78
2022/04/18 00:36:26;;;;;;;9.17;8.87;;;;;;;2.56;87.16;92366.47;4991504;28;20196;-78
2022/04/18 00:38:51;;;;;;;8.77;8.47;;;;;;;2.45;85.10;92372.47;4990149;28;20319;-79
2022/04/18 00:41:17;;;;;;;8.00;7.70;;;;;;;2.29;84.52;92373.25;4991069;28;20215;-79
2022/04/18 00:43:46;;;;;;;8.67;8.37;;;;;;;2.34;84.13;92368.19;4990715;28;20220;-77
2022/04/18 00:46:14;;;;;;;8.73;8.43;;;;;;;2.37;84.47;92372.06;4990756;28;20188;-78
2022/04/18 00:48:40;;;;;;;8.87;8.57;;;;;;;2.53;85.36;92369.50;4990471;28;20235;-78
2022/04/18 00:51:09;;;;;;;8.03;7.83;;;;;;;2.15;84.62;92323.06;4990930;28;20220;-78
2022/04/18 00:53:37;;;;;;;8.83;8.53;;;;;;;2.35;84.02;92348.38;4990234;28;20330;-79
2022/04/18 00:56:03;;;;;;;7.60;7.40;;;;;;;2.41;84.00;92361.06;4991037;28;20188;-78
2022/04/18 00:58:29;;;;;;;9.07;8.73;;;;;;;2.49;84.06;92362.47;4990559;28;20239;-78
2022/04/18 01:00:55;;;;;;;8.63;8.33;;;;;;;2.60;83.86;92357.22;4990627;28;20203;-78
2022/04/18 01:03:20;;;;;;;8.23;7.93;;;;;;;2.61;83.91;92353.66;4989441;28;20267;-78
2022/04/18 01:05:49;;;;;;;8.23;7.93;;;;;;;2.53;86.64;92345.53;4989784;28;20192;-77
2022/04/18 01:08:15;;;;;;;8.90;8.60;;;;;;;2.45;84.02;92356.22;4990225;28;20640;-79
2022/04/18 01:10:42;;;;;;;8.80;8.50;;;;;;;2.39;83.63;92336.56;4989809;28;20196;-77
2022/04/18 01:13:07;;;;;;;7.97;7.77;;;;;;;2.53;84.75;92353.25;4990640;28;20323;-78
2022/04/18 01:15:33;;;;;;;8.50;8.20;;;;;;;2.28;84.85;92299.59;4989194;28;20207;-78
2022/04/18 01:17:58;;;;;;;8.23;8.03;;;;;;;2.52;83.96;92343.97;4989160;28;20219;-79
2022/04/18 01:20:34;;;;;;;8.33;8.03;;;;;;;2.49;82.01;92354.75;4989462;28;20200;-78
2022/04/18 01:23:00;;;;;;;9.10;8.80;;;;;;;2.53;83.94;92343.75;4989230;28;20227;-78
2022/04/18 01:30:54;;;;;;;9.30;9.00;;;;;;;2.53;83.71;92340.38;4990146;28;20202;-78
2022/04/18 01:33:21;;;;;;;8.83;8.43;;;;;;;2.44;83.21;92336.66;4990755;28;20236;-79
2022/04/18 01:35:47;;;;;;;8.40;8.10;;;;;;;2.36;82.18;92335.25;4990276;28;20220;-78
2022/04/18 01:38:13;;;;;;;7.77;7.57;;;;;;;2.41;83.46;92321.66;4989955;28;20243;-78
2022/04/18 01:40:39;;;;;;;9.10;8.80;;;;;;;2.40;83.34;92335.53;4989897;28;20211;-77
2022/04/18 01:43:05;;;;;;;8.63;8.33;;;;;;;2.53;83.33;92320.56;4990109;28;20200;-77
2022/04/18 01:45:31;;;;;;;8.27;7.97;;;;;;;2.55;83.15;92308.19;4989026;28;20260;-78
2022/04/18 01:47:56;;;;;;;7.83;7.53;;;;;;;2.63;84.12;92305.22;4989703;28;20215;-78
2022/04/18 01:50:22;;;;;;;8.57;8.27;;;;;;;2.67;84.59;92313.25;4993365;28;20219;-79
2022/04/18 01:52:47;;;;;;;8.27;7.97;;;;;;;2.77;83.61;92314.16;4993693;28;20184;-78
2022/04/18 01:55:12;;;;;;;7.97;7.77;;;;;;;2.53;83.65;92312.03;4993547;28;20219;-79
2022/04/18 01:57:38;;;;;;;8.50;8.20;;;;;;;2.79;84.22;92313.91;4993747;28;20199;-79
2022/04/18 02:00:04;;;;;;;8.27;8.07;;;;;;;2.65;84.74;92299.81;4993439;28;20352;-79
2022/04/18 02:02:30;;;;;;;8.50;8.13;;;;;;;2.70;84.78;92294.75;4993959;28;20274;-79
2022/04/18 02:04:55;;;;;;;8.87;8.57;;;;;;;2.76;82.98;92298.94;4993486;28;20228;-78
2022/04/18 02:07:21;;;;;;;8.03;7.83;;;;;;;2.49;82.96;92301.41;4993630;28;20214;-78
2022/04/18 02:09:46;;;;;;;9.33;8.93;;;;;;;2.55;82.94;92294.56;4993724;28;20234;-78
2022/04/18 02:12:12;;;;;;;7.77;7.47;;;;;;;2.43;82.31;92293.88;4992928;28;20184;-78
2022/04/18 02:14:37;;;;;;;8.00;7.80;;;;;;;2.53;81.66;92289.66;4993299;28;20240;-79
2022/04/18 02:17:03;;;;;;;9.07;8.77;;;;;;;2.65;82.21;92277.41;4993910;28;20196;-79
2022/04/18 02:19:28;;;;;;;8.60;8.30;;;;;;;2.40;82.15;92245.38;4993365;28;20227;-79
2022/04/18 02:21:54;;;;;;;8.93;8.57;;;;;;;2.88;83.04;92279.00;4993121;28;20345;-77
2022/04/18 02:24:19;;;;;;;8.03;7.83;;;;;;;3.00;81.64;92279.66;4993439;28;20239;-78
2022/04/18 02:26:45;;;;;;;8.27;7.97;;;;;;;2.95;79.72;92282.97;4993940;28;20249;-80
2022/04/18 02:29:10;;;;;;;8.20;7.97;;;;;;;3.01;82.25;92279.41;4992621;28;20227;-78
2022/04/18 02:32:47;;;;;;;8.33;8.03;;;;;;;2.85;83.43;92276.88;4993095;28;20192;-78
2022/04/18 02:34:21;;;;;;;8.20;8.00;;;;;;;2.92;82.82;92275.72;4993240;28;20287;-78
2022/04/18 02:36:46;;;;;;;8.47;8.17;;;;;;;3.01;83.01;92266.53;4993510;28;20215;-78
2022/04/18 02:39:12;;;;;;;8.90;8.60;;;;;;;2.80;82.87;92274.25;4993031;28;20293;-79
2022/04/18 02:41:37;;;;;;;8.40;8.10;;;;;;;2.81;82.45;92244.88;4992850;28;20180;-77
2022/04/18 02:44:03;;;;;;;8.50;8.23;;;;;;;3.05;81.78;92267.59;4992827;28;20223;-78
2022/04/18 02:46:28;;;;;;;9.33;8.93;;;;;;;2.87;81.29;92265.34;4992153;28;20200;-78
2022/04/18 02:48:54;;;;;;;8.37;8.17;;;;;;;2.64;82.20;92265.56;4992671;28;20250;-78
2022/04/18 02:51:19;;;;;;;8.10;7.80;;;;;;;2.29;81.43;92205.09;4993081;28;20199;-77
2022/04/18 02:53:45;;;;;;;7.77;7.57;;;;;;;2.66;82.43;92247.28;4992414;28;20238;-78
2022/04/18 02:56:10;;;;;;;8.23;7.93;;;;;;;2.49;78.52;92228.53;4993193;28;20199;-78
2022/04/18 02:58:36;;;;;;;7.40;7.20;;;;;;;2.77;78.95;92254.88;4992624;28;20220;-78
2022/04/18 03:01:01;;;;;;;8.87;8.57;;;;;;;2.82;79.83;92242.06;4992102;28;20195;-77
2022/04/18 03:03:27;;;;;;;8.87;8.43;;;;;;;2.88;79.08;92245.50;4992664;28;20220;-72
2022/04/18 03:05:53;;;;;;;8.83;8.50;;;;;;;2.66;82.00;92231.84;4993049;28;20256;-73
2022/04/18 03:08:18;;;;;;;7.73;7.53;;;;;;;2.84;80.65;92250.34;4991822;28;20235;-74
2022/04/18 03:13:29;;;;;;;7.53;7.33;;;;;;;2.95;80.62;92257.19;4992381;28;20367;-73
2022/04/18 03:15:54;;;;;;;7.83;7.63;;;;;;;2.87;80.80;92243.91;4992798;28;20204;-73
2022/04/18 03:18:20;;;;;;;8.30;8.00;;;;;;;2.93;81.89;92245.53;4991537;28;20299;-73
2022/04/18 03:20:46;;;;;;;9.23;8.90;;;;;;;2.96;80.71;92248.41;4992763;28;20199;-73
2022/04/18 03:23:11;;;;;;;8.60;8.30;;;;;;;2.99;77.65;92247.94;4991556;28;20243;-73
2022/04/18 03:25:37;;;;;;;7.63;7.43;;;;;;;3.07;77.89;92249.28;4992629;28;20188;-73
2022/04/18 03:28:03;;;;;;;9.83;9.43;;;;;;;2.86;79.75;92248.28;4991894;28;20219;-73
2022/04/18 03:30:28;;;;;;;8.47;8.17;;;;;;;3.00;78.50;92259.03;4991095;28;20196;-73
2022/04/18 03:32:54;;;;;;;7.93;7.63;;;;;;;3.19;75.74;92242.22;4992089;28;20226;-73
2022/04/18 03:35:19;;;;;;;7.97;7.67;;;;;;;3.06;76.69;92235.66;4992685;28;20227;-73
2022/04/18 03:40:29;;;;;;;8.13;7.83;;;;;;;3.15;77.14;92249.66;4992300;28;20296;-73
2022/04/18 03:42:54;;;;;;;8.47;8.07;;;;;;;3.17;76.84;92254.56;4991707;28;20192;-73
2022/04/18 03:45:20;;;;;;;8.57;8.27;;;;;;;3.00;77.01;92253.88;4992163;28;20200;-73
2022/04/18 03:47:45;;;;;;;9.70;9.40;;;;;;;2.54;78.99;92210.53;4990814;28;20236;-81
2022/04/18 03:50:10;;;;;;;8.00;7.70;;;;;;;2.66;79.53;92253.19;4988437;28;20239;-76
2022/04/18 03:52:36;;;;;;;9.07;8.57;;;;;;;2.32;81.37;92231.13;4991108;28;20184;-82
2022/04/18 03:55:01;;;;;;;8.60;8.33;;;;;;;2.39;83.51;92261.88;4990832;28;20239;-82
2022/04/18 03:57:27;;;;;;;9.23;8.93;;;;;;;2.50;83.88;92268.72;4991043;28;20184;-80
2022/04/18 03:59:52;;;;;;;10.03;9.73;;;;;;;2.09;84.58;92249.34;4990685;28;20270;-84
2022/04/18 04:02:18;;;;;;;8.53;8.23;;;;;;;2.19;85.96;92264.19;4990414;28;20188;-85
2022/04/18 04:04:43;;;;;;;7.73;7.43;;;;;;;1.97;84.92;92268.47;4989772;28;20239;-80
2022/04/18 04:07:09;;;;;;;7.83;7.57;;;;;;;2.40;85.34;92274.50;4991316;28;20238;-77
2022/04/18 04:09:35;;;;;;;8.67;8.27;;;;;;;2.53;84.95;92275.97;4990457;28;20223;-85
2022/04/18 04:12:01;;;;;;;9.57;9.17;;;;;;;2.52;83.67;92285.50;4991238;28;20192;-81
2022/04/18 04:14:27;;;;;;;8.57;8.27;;;;;;;2.57;83.07;92274.50;4990336;28;20235;-80
2022/04/18 04:16:52;;;;;;;8.57;8.27;;;;;;;2.65;81.84;92274.84;4990953;28;20176;-84
2022/04/18 04:19:17;;;;;;;8.03;7.83;;;;;;;2.66;82.67;92268.66;4991183;28;20227;-90
2022/04/18 04:21:43;;;;;;;8.80;8.50;;;;;;;2.56;83.31;92275.50;4991978;28;20232;-85
2022/04/18 04:24:08;;;;;;;8.50;8.20;;;;;;;2.60;82.19;92269.63;4991474;28;20224;-84
2022/04/18 04:26:34;;;;;;;8.20;7.90;;;;;;;2.70;82.76;92274.13;4992050;28;20211;-82
2022/04/18 04:28:59;;;;;;;9.50;9.13;;;;;;;2.80;81.44;92274.25;4990652;28;20287;-78
2022/04/18 04:31:25;;;;;;;9.13;8.83;;;;;;;2.83;81.71;92273.78;4991327;28;20192;-84
2022/04/18 04:33:50;;;;;;;9.47;9.07;;;;;;;3.01;81.86;92276.03;4991188;28;20224;-79
2022/04/18 04:36:17;;;;;;;8.60;8.30;;;;;;;2.97;82.81;92278.31;4991076;28;20211;-87
2022/04/18 04:38:42;;;;;;;8.90;8.60;;;;;;;2.68;86.50;92252.97;4990556;28;20243;-82
2022/04/18 04:41:08;;;;;;;8.23;8.00;;;;;;;2.75;81.55;92284.50;4990372;28;20184;-80
2022/04/18 04:43:33;;;;;;;9.63;9.33;;;;;;;2.79;80.11;92267.53;4988697;28;20236;-83
2022/04/18 04:46:02;;;;;;;9.20;8.90;;;;;;;2.89;80.74;92277.97;4989286;28;20188;-83
2022/04/18 04:48:28;;;;;;;8.93;8.63;;;;;;;2.85;81.43;92282.03;4990281;28;20295;-82
2022/04/18 04:50:54;;;;;;;7.80;7.60;;;;;;;2.89;81.73;92283.13;4989585;28;20204;-82
2022/04/18 04:53:19;;;;;;;9.43;9.13;;;;;;;3.10;80.56;92280.53;4990646;28;20232;-83
2022/04/18 04:55:45;;;;;;;9.13;8.83;;;;;;;3.00;81.05;92280.41;4990855;28;20198;-83
2022/04/18 04:58:11;;;;;;;9.40;8.90;;;;;;;3.13;78.93;92284.44;4989857;28;20250;-82
2022/04/18 05:00:38;;;;;;;7.97;7.77;;;;;;;3.24;80.43;92294.63;4989658;28;20184;-83
2022/04/18 05:03:04;;;;;;;9.00;8.70;;;;;;;3.15;80.64;92252.25;4989812;28;20190;-83
2022/04/18 05:05:30;;;;;;;8.67;8.37;;;;;;;3.32;80.46;92288.25;4989623;28;20887;-82
2022/04/18 05:07:55;;;;;;;8.57;8.23;;;;;;;3.51;80.10;92261.09;4988575;28;20242;-93
2022/04/18 05:10:21;;;;;;;8.80;8.50;;;;;;;3.51;77.67;92263.69;4989809;28;20190;-78
2022/04/18 05:12:47;;;;;;;9.00;8.60;;;;;;;3.46;78.75;92286.06;4989654;28;20192;-87
2022/04/18 05:15:13;;;;;;;8.03;7.73;;;;;;;3.63;79.08;92286.78;4990321;28;20208;-83
2022/04/18 05:17:38;;;;;;;8.10;7.80;;;;;;;3.61;79.28;92270.75;4991129;28;20708;-86
2022/04/18 05:20:04;;;;;;;8.40;8.10;;;;;;;4.01;75.64;92291.72;4989751;28;20296;-82
2022/04/18 05:22:31;;;;;;;9.77;9.37;;;;;;;3.54;79.83;92281.25;4990345;28;20236;-85
2022/04/18 05:24:57;;;;;;;9.13;8.73;;;;;;;3.73;80.35;92286.84;4989538;28;20271;-84
2022/04/18 05:27:23;;;;;;;9.63;9.23;;;;;;;3.46;77.12;92289.44;4990771;28;20737;-81
2022/04/18 05:29:49;;;;;;;8.57;8.27;;;;;;;3.79;75.86;92291.03;4989728;28;20228;-88
2022/04/18 05:32:14;;;;;;;8.97;8.63;;;;;;;3.83;75.43;92300.63;4990573;28;20222;-84
2022/04/18 05:34:40;;;;;;;9.20;8.90;;;;;;;3.63;73.32;92290.09;4990687;28;20877;-91
2022/04/18 05:37:07;;;;;;;7.77;7.47;;;;;;;3.78;75.71;92289.47;4990512;28;20198;-82
2022/04/18 05:39:33;;;;;;;9.53;9.13;;;;;;;3.68;74.37;92292.75;4989482;28;20225;-84
2022/04/18 05:41:58;;;;;;;8.63;8.30;;;;;;;3.59;74.15;92270.19;4990247;28;20203;-86
2022/04/18 05:44:24;;;;;;;8.67;8.37;;;;;;;3.74;75.09;92299.50;4989965;28;20224;-87
2022/04/18 05:46:50;;;;;;;10.37;9.93;;;;;;;3.88;75.36;92290.34;4989397;28;20207;-87
2022/04/18 05:49:15;;;;;;;8.97;8.53;;;;;;;3.95;74.35;92301.25;4989945;28;20252;-89
2022/04/18 05:51:41;;;;;;;9.37;9.07;;;;;;;3.64;74.89;92302.00;4990105;28;20198;-84
2022/04/18 05:54:06;;;;;;;9.43;9.03;;;;;;;3.77;72.89;92278.38;4989834;28;20219;-82
2022/04/18 05:56:32;;;;;;;8.70;8.33;;;;;;;3.87;74.17;92290.59;4990073;28;20180;-83
2022/04/18 05:58:58;;;;;;;9.10;8.50;;;;;;;3.90;74.46;92306.38;4990187;28;20276;-83
2022/04/18 06:01:24;;;;;;;8.93;8.53;;;;;;;3.71;73.32;92281.13;4990395;28;20203;-86
2022/04/18 06:03:49;;;;;;;9.70;9.30;;;;;;;3.93;71.46;92300.72;4990616;28;20283;-85
2022/04/18 06:06:15;;;;;;;9.27;8.87;;;;;;;4.08;71.76;92318.91;4990296;28;20192;-86
2022/04/18 06:08:41;;;;;;;9.03;8.73;;;;;;;4.04;71.31;92315.28;4988914;28;20227;-86
2022/04/18 06:11:07;;;;;;;8.80;8.50;;;;;;;3.95;72.81;92324.50;4989884;28;20212;-87
2022/04/18 06:13:33;;;;;;;9.67;9.13;;;;;;;3.91;74.13;92320.81;4985030;28;20263;-87
2022/04/18 06:15:58;;;;;;;7.97;7.67;;;;;;;4.03;72.60;92316.28;4989751;28;20192;-88
2022/04/18 06:18:24;;;;;;;9.27;8.87;;;;;;;4.23;74.75;92316.47;4989562;28;20244;-83
2022/04/18 06:20:49;;;;;;;9.33;9.00;;;;;;;4.38;74.72;92316.56;4988824;28;20188;-87
2022/04/18 06:23:16;;;;;;;9.07;8.77;;;;;;;4.46;72.12;92326.44;4989659;28;20243;-89
2022/04/18 06:25:45;;;;;;;9.33;8.93;;;;;;;4.63;69.64;92321.91;4989310;28;20190;-88
2022/04/18 06:28:12;;;;;;;10.27;9.87;;;;;;;4.31;70.58;92292.72;4989575;28;20299;-81
2022/04/18 06:30:38;;;;;;;9.27;8.68;;;;;;;4.46;71.32;92321.28;4988427;28;20426;-92
2022/04/18 06:33:04;;;;;;;9.13;8.63;;;;;;;3.91;71.75;92323.41;4989634;28;20223;-86
2022/04/18 06:35:29;;;;;;;9.97;9.57;;;;;;;4.27;72.83;92317.50;4989949;28;20679;-82
2022/04/18 06:37:55;;;;;;;9.63;9.23;;;;;;;4.22;72.21;92320.06;4992462;28;20204;-82
2022/04/18 06:40:20;;;;;;;10.23;9.60;;;;;;;4.26;70.71;92326.31;4993704;28;20187;-82
2022/04/18 06:42:46;;;;;;;9.10;8.60;;;;;;;4.27;71.90;92322.69;4993336;28;20240;-86
2022/04/18 06:45:11;;;;;;;8.70;8.30;;;;;;;4.31;69.43;92331.47;4993490;28;20227;-91
2022/04/18 06:47:36;;;;;;;10.13;9.70;;;;;;;3.95;71.50;92310.78;4993627;28;20215;-93
2022/04/18 06:50:08;;;;;;;9.73;9.27;;;;;;;4.19;72.07;92327.50;4992487;28;20291;-89
2022/04/18 06:52:41;;;;;;;9.90;9.40;;;;;;;4.36;71.77;92328.94;4992731;28;20223;-92
2022/04/18 06:55:08;;;;;;;9.37;8.87;;;;;;;4.46;70.95;92321.28;4993357;28;20299;-92
2022/04/18 06:57:34;;;;;;;9.13;8.73;;;;;;;4.51;70.88;92334.22;4993250;28;20177;-92
2022/04/18 06:59:59;;;;;;;9.47;8.87;;;;;;;4.72;69.79;92333.34;5008519;28;20228;-87
2022/04/18 07:02:25;;;;;;;8.63;8.23;;;;;;;4.85;68.83;92335.50;4994249;28;20251;-91
2022/04/18 07:04:51;;;;;;;9.13;8.73;;;;;;;4.71;68.08;92339.53;4993793;28;20247;-92
2022/04/18 07:07:16;;;;;;;9.33;8.97;;;;;;;4.44;68.67;92338.81;4993288;28;20216;-92
2022/04/18 07:09:42;;;;;;;8.97;8.57;;;;;;;4.38;70.18;92313.97;4992893;28;20327;-88
2022/04/18 07:12:08;;;;;;;9.50;9.10;;;;;;;4.60;68.74;92337.91;4993068;28;20200;-91
2022/04/18 07:14:35;;;;;;;10.00;9.60;;;;;;;4.89;67.74;92328.78;4992043;28;20232;-90
2022/04/18 07:17:00;;;;;;;9.33;8.90;;;;;;;5.02;68.40;92329.34;4993114;28;20196;-92
2022/04/18 07:19:28;;;;;;;10.00;9.37;;;;;;;4.98;66.38;92332.44;4991693;28;20294;-85
2022/04/18 07:21:53;;;;;;;10.00;9.43;;;;;;;4.57;70.31;92330.66;4992845;28;20219;-89
2022/04/18 07:24:19;;;;;;;9.07;8.67;;;;;;;4.62;67.05;92325.50;4992604;28;20292;-87
2022/04/18 07:26:44;;;;;;;11.03;10.47;;;;;;;4.40;70.22;92337.78;4991232;28;20212;-91
2022/04/18 07:29:10;;;;;;;9.73;9.30;;;;;;;4.21;69.73;92334.00;4991553;28;20239;-85
2022/04/18 07:31:35;;;;;;;11.20;10.60;;;;;;;4.35;71.15;92324.03;4992328;28;20177;-81
2022/04/18 07:34:01;;;;;;;9.27;8.87;;;;;;;4.06;72.64;92327.94;4993085;28;20355;-84
2022/04/18 07:36:26;;;;;;;10.23;9.83;;;;;;;4.39;70.14;92301.84;4993203;28;20200;-87
2022/04/18 07:38:51;;;;;;;8.87;8.47;;;;;;;4.53;69.54;92329.59;4991599;28;20236;-90
2022/04/18 07:41:17;;;;;;;9.57;9.17;;;;;;;4.68;70.07;92339.25;4991586;28;20208;-88
2022/04/18 07:43:43;;;;;;;9.47;9.07;;;;;;;4.30;69.30;92337.69;4991456;28;20280;-85
2022/04/18 07:46:08;;;;;;;8.47;8.07;;;;;;;3.90;72.04;92329.59;4992257;28;20194;-91
2022/04/18 07:48:34;;;;;;;9.93;9.43;;;;;;;3.93;73.44;92336.88;4991796;28;20263;-87
2022/04/18 07:53:45;;;;;;;10.07;9.47;;;;;;;3.76;74.30;92335.41;4991731;28;20234;-87
2022/04/18 07:56:10;;;;;;;8.37;7.97;;;;;;;3.68;75.39;92344.38;4992649;28;20200;-88
2022/04/18 07:58:36;;;;;;;9.60;9.10;;;;;;;3.66;74.91;92351.56;4991783;28;20231;-92
2022/04/18 08:01:01;;;;;;;8.70;8.37;;;;;;;3.89;73.32;92340.94;4992342;28;20283;-85
2022/04/18 08:03:27;;;;;;;8.97;8.57;;;;;;;4.01;73.00;92343.38;4991923;28;20268;-91
2022/04/18 08:05:59;;;;;;;9.13;8.57;;;;;;;3.73;73.76;92310.06;4992567;28;20195;-87
2022/04/18 08:08:24;;;;;;;9.97;9.47;;;;;;;3.79;73.38;92342.66;4990546;28;20250;-87
2022/04/18 08:10:50;;;;;;;8.80;8.40;;;;;;;3.61;73.51;92317.94;4992151;28;20247;-86
2022/04/18 08:13:15;;;;;;;8.83;8.53;;;;;;;3.46;74.61;92335.09;4991545;28;20224;-88
2022/04/18 08:15:41;;;;;;;11.70;11.00;;;;;;;3.67;75.22;92340.22;4992013;28;20195;-88
2022/04/18 08:18:06;;;;;;;10.93;10.23;;;;;;;3.82;73.75;92339.59;5006593;28;20188;-89
2022/04/18 08:20:33;;;;;;;10.80;10.30;;;;;;;3.89;73.08;92342.75;4989790;28;20188;-84
2022/04/18 08:22:58;;;;;;;9.87;9.37;;;;;;;3.85;73.92;92342.47;4990869;28;20239;-85
2022/04/18 08:25:24;;;;;;;9.83;9.33;;;;;;;3.81;72.78;92331.09;4991182;28;20192;-85
2022/04/18 08:27:50;;;;;;;17.33;15.37;;;;;;;3.79;74.07;92346.03;4993692;28;20216;-87
2022/04/18 08:30:15;;;;;;;10.43;9.93;;;;;;;3.64;74.60;92320.06;4990791;28;21218;-87
2022/04/18 08:32:42;;;;;;;11.03;10.43;;;;;;;3.62;74.77;92322.09;4990773;28;20248;-88
2022/04/18 08:35:08;;;;;;;13.70;12.53;;;;;;;3.96;73.99;92346.69;4991091;28;20259;-85
2022/04/18 08:37:34;;;;;;;10.37;9.87;;;;;;;3.81;75.40;92349.16;4991215;28;20187;-86
2022/04/18 08:40:01;;;;;;;8.60;8.33;;;;;;;3.81;73.84;92358.69;4990915;28;20235;-87
2022/04/18 08:42:31;;;;;;;10.13;9.73;;;;;;;3.81;74.96;92349.16;4990385;28;20211;-84
2022/04/18 08:44:58;;;;;;;8.93;8.63;;;;;;;3.49;76.00;92355.28;4990965;28;20255;-86
2022/04/18 08:52:53;;;;;;;9.73;9.33;;;;;;;3.30;77.67;92349.63;4987717;28;20207;-84
2022/04/18 08:55:19;;;;;;;8.30;8.00;;;;;;;3.23;75.46;92310.34;4990392;28;20192;-86
2022/04/18 08:57:44;;;;;;;8.37;8.07;;;;;;;3.35;76.35;92338.59;4990248;28;20250;-84
2022/04/18 09:00:12;;;;;;;10.67;10.17;;;;;;;3.53;75.09;92331.31;4989446;28;20235;-86
2022/04/18 09:02:38;;;;;;;9.80;9.40;;;;;;;3.74;74.74;92351.13;4990626;28;20191;-86
2022/04/18 09:05:08;;;;;;;9.13;8.77;;;;;;;3.81;74.31;92349.16;4989564;28;20215;-86
2022/04/18 09:07:33;;;;;;;9.33;8.93;;;;;;;3.69;74.33;92340.75;4990204;28;20877;-86
2022/04/18 09:09:59;;;;;;;9.80;9.40;;;;;;;3.82;72.74;92352.50;4990156;28;20232;-87
2022/04/18 09:12:27;;;;;;;8.77;8.47;;;;;;;3.94;72.83;92359.06;4989331;28;20200;-88
2022/04/18 09:14:53;;;;;;;8.67;8.27;;;;;;;3.53;73.23;92284.06;4990013;28;20224;-87
2022/04/18 09:17:36;;;;;;;9.20;8.70;;;;;;;4.01;72.07;92357.09;4990278;28;20580;-85
2022/04/18 09:20:09;;;;;;;8.47;8.07;;;;;;;4.04;73.19;92353.22;4990472;28;20233;-84
2022/04/18 09:22:45;;;;;;;8.87;8.57;;;;;;;4.27;71.71;92348.53;4990295;28;20262;-82
2022/04/18 09:25:14;;;;;;;8.50;8.20;;;;;;;4.15;72.16;92357.44;4986086;28;20263;-79
2022/04/18 09:27:40;;;;;;;10.40;9.80;;;;;;;4.20;73.93;92358.25;4989457;28;20204;-83
2022/04/18 09:30:11;;;;;;;9.43;9.03;;;;;;;4.35;72.53;92348.06;4987713;28;20258;-82
2022/04/18 09:32:40;;;;;;;10.80;10.40;;;;;;;4.40;71.95;92330.03;4989291;28;20213;-83
2022/04/18 09:35:06;;;;;;;8.30;8.00;;;;;;;4.58;68.57;92350.31;4969466;28;20224;-82
2022/04/18 09:37:33;;;;;;;10.27;9.73;;;;;;;4.35;70.10;92347.28;4970450;28;20191;-86
2022/04/18 09:39:59;;;;;;;8.60;8.30;;;;;;;4.34;70.78;92359.41;4978657;28;20299;-85
2022/04/18 09:42:29;;;;;;;9.97;9.47;;;;;;;4.45;71.21;92352.53;4988295;28;20211;-86
2022/04/18 09:44:56;;;;;;;8.97;8.67;;;;;;;4.49;71.11;92349.22;4988674;28;20247;-80
2022/04/18 09:47:23;;;;;;;9.80;9.40;;;;;;;4.16;71.24;92349.47;4989726;28;20287;-80
2022/04/18 09:49:50;;;;;;;9.83;9.33;;;;;;;3.80;71.82;92351.97;4987770;28;20232;-80
2022/04/18 09:52:20;;;;;;;8.70;8.40;;;;;;;3.73;71.53;92343.63;4989413;28;20194;-81
2022/04/18 09:54:56;;;;;;;10.03;9.53;;;;;;;4.31;69.63;92349.56;4987922;28;20224;-84
2022/04/18 09:57:27;;;;;;;9.33;8.97;;;;;;;4.93;69.62;92337.56;4989163;28;20192;-84
2022/04/18 09:59:58;;;;;;;9.83;9.47;;;;;;;4.79;69.23;92320.94;4988756;28;20251;-87
2022/04/18 10:02:25;;;;;;;8.63;8.23;;;;;;;5.68;66.94;92338.94;4989400;28;20188;-81
2022/04/18 10:04:52;;;;;;;9.40;9.00;;;;;;;6.03;66.13;92339.81;4989474;28;20299;-84
2022/04/18 10:07:19;;;;;;;8.90;8.60;;;;;;;5.62;63.21;92342.53;4988649;28;20208;-84
2022/04/18 10:09:44;;;;;;;8.37;8.07;;;;;;;5.70;65.89;92316.91;4989031;28;20255;-85
2022/04/18 10:12:13;;;;;;;8.40;8.07;;;;;;;5.78;66.51;92331.16;4992155;28;20181;-85
2022/04/18 10:14:41;;;;;;;9.20;8.80;;;;;;;5.43;65.86;92325.91;4990540;28;20851;-84
2022/04/18 10:17:08;;;;;;;8.77;8.37;;;;;;;5.47;64.86;92324.34;4991727;28;20227;-85
2022/04/18 10:19:34;;;;;;;9.13;8.83;;;;;;;5.86;64.95;92328.13;4992661;28;20216;-86
2022/04/18 10:22:19;;;;;;;9.70;9.30;;;;;;;5.04;65.25;92322.13;4992902;28;20235;-86
2022/04/18 10:24:58;;;;;;;8.97;8.67;;;;;;;4.96;65.11;92306.03;4992412;28;20235;-87
2022/04/18 10:27:37;;;;;;;9.87;9.37;;;;;;;4.19;67.40;92325.72;4993158;28;20207;-88
2022/04/18 10:30:04;;;;;;;9.00;8.70;;;;;;;4.38;68.57;92313.97;4991929;28;20254;-87
2022/04/18 10:32:31;;;;;;;9.23;8.83;;;;;;;5.14;67.72;92332.53;4991419;28;20252;-86
2022/04/18 10:35:00;;;;;;;9.87;9.37;;;;;;;5.36;66.89;92299.47;4992832;28;20228;-85
2022/04/18 10:37:27;;;;;;;10.10;9.40;;;;;;;4.97;65.94;92322.34;4992194;28;20200;-86
2022/04/18 10:39:58;;;;;;;9.67;9.27;;;;;;;5.14;65.66;92317.75;4992299;28;20238;-87
2022/04/18 10:42:32;;;;;;;9.20;8.83;;;;;;;5.28;66.08;92315.47;4992373;28;20192;-81
2022/04/18 10:45:10;;;;;;;8.17;7.87;;;;;;;5.22;65.61;92313.91;4992098;28;20235;-80
2022/04/18 10:48:03;;;;;;;10.33;9.93;;;;;;;5.32;66.74;92316.53;4990989;28;20219;-81
2022/04/18 10:50:33;;;;;;;9.93;9.33;;;;;;;5.44;65.64;92325.66;4991696;28;20216;-87
2022/04/18 10:53:24;;;;;;;17.83;9.30;;;;;;;5.11;67.04;92318.28;4990155;28;20223;-77
2022/04/18 10:55:55;;;;;;;9.37;9.07;;;;;;;4.60;66.42;92312.06;4991270;28;20200;-81
2022/04/18 10:58:25;;;;;;;10.67;10.17;;;;;;;5.27;67.76;92313.94;4990884;28;20263;-80
2022/04/18 11:00:56;;;;;;;10.30;9.13;;;;;;;5.32;65.86;92309.56;4992413;28;20235;-82
2022/04/18 11:03:36;;;;;;;10.47;9.87;;;;;;;6.06;62.93;92310.00;4991258;28;20251;-82
2022/04/18 11:06:03;;;;;;;9.53;8.93;;;;;;;6.25;61.88;92313.66;4992844;28;20247;-81
2022/04/18 11:08:31;;;;;;;9.87;9.37;;;;;;;6.22;62.35;92309.78;4991251;28;20247;-82
2022/04/18 11:11:14;;;;;;;8.77;8.47;;;;;;;6.22;62.24;92307.19;4991974;28;20186;-80
2022/04/18 11:13:43;;;;;;;9.37;9.00;;;;;;;6.41;60.70;92297.06;4990728;28;20224;-82
2022/04/18 11:16:26;;;;;;;8.60;8.30;;;;;;;6.33;63.04;92305.34;4992085;28;20207;-83
2022/04/18 11:19:08;;;;;;;9.00;8.17;;;;;;;6.18;62.66;92294.97;4991419;28;20236;-83
2022/04/18 11:21:59;;;;;;;9.57;9.17;;;;;;;5.78;64.05;92293.09;5005929;28;20215;-84
2022/04/18 11:24:52;;;;;;;8.00;7.70;;;;;;;4.80;65.56;92295.88;4989369;28;20227;-83
2022/04/18 11:27:31;;;;;;;9.13;8.73;;;;;;;5.23;65.66;92289.59;4990346;28;20220;-84
2022/04/18 11:30:00;;;;;;;10.10;9.70;;;;;;;5.70;62.94;92300.59;4990466;28;20243;-84
2022/04/18 11:32:30;;;;;;;10.70;10.30;;;;;;;5.36;62.80;92287.31;4988996;28;20220;-83
2022/04/18 11:34:58;;;;;;;9.23;8.90;;;;;;;5.19;62.86;92278.19;4990748;28;20216;-85
2022/04/18 11:37:35;;;;;;;9.00;8.70;;;;;;;5.27;64.14;92295.81;4990843;28;20216;-84
2022/04/18 11:40:04;;;;;;;9.83;9.43;;;;;;;5.26;64.06;92300.22;4972021;28;20243;-81
2022/04/18 11:42:31;;;;;;;9.50;9.10;;;;;;;5.43;65.39;92300.78;4971251;28;20240;-84
2022/04/18 11:45:06;;;;;;;9.30;8.90;;;;;;;5.49;65.66;92273.91;4989468;28;20247;-84
2022/04/18 11:47:34;;;;;;;10.43;9.93;;;;;;;5.83;66.59;92295.75;4990869;28;20271;-84
2022/04/18 11:50:02;;;;;;;9.97;9.67;;;;;;;5.83;64.11;92300.94;4990629;28;20239;-83
2022/04/18 11:52:30;;;;;;;8.80;8.50;;;;;;;5.99;64.22;92299.88;4989484;28;20231;-84
2022/04/18 11:55:03;;;;;;;9.77;9.37;;;;;;;6.05;64.61;92298.09;4989814;28;20235;-83
2022/04/18 11:57:34;;;;;;;9.10;8.70;;;;;;;4.89;64.97;92287.41;4990646;28;20199;-84
2022/04/18 12:00:02;;;;;;;9.80;9.40;;;;;;;4.89;67.73;92284.81;4989119;28;20235;-84
2022/04/18 12:08:03;;;;;;;9.10;8.60;;;;;;;4.89;66.96;92284.81;4959074;28;20236;-84